sensor_id;sensor_type;location;lat;lon;timestamp;temperature;humidity
71096;DHT22;58753;49.440;11.126;2023-02-22T00:00:39;2.76;91.06
71096;DHT22;58753;49.440;11.126;2023-02-22T00:03:14;2.68;91.15
71096;DHT22;58753;49.440;11.126;2023-02-22T00:05:42;2.63;91.19
71096;DHT22;58753;49.440;11.126;2023-02-22T00:08:13;2.66;91.42
71096;DHT22;58753;49.440;11.126;2023-02-22T00:10:38;2.64;91.43
71096;DHT22;58753;49.440;11.126;2023-02-22T00:13:06;2.64;91.46
71096;DHT22;58753;49.440;11.126;2023-02-22T00:15:32;2.63;91.35
71096;DHT22;58753;49.440;11.126;2023-02-22T00:17:58;2.57;91.43
71096;DHT22;58753;49.440;11.126;2023-02-22T00:20:24;2.56;91.45
71096;DHT22;58753;49.440;11.126;2023-02-22T00:22:51;2.49;91.29
71096;DHT22;58753;49.440;11.126;2023-02-22T00:25:20;2.44;91.19
71096;DHT22;58753;49.440;11.126;2023-02-22T00:27:46;2.42;91.30
71096;DHT22;58753;49.440;11.126;2023-02-22T00:30:24;2.39;91.36
71096;DHT22;58753;49.440;11.126;2023-02-22T00:32:51;2.32;91.37
71096;DHT22;58753;49.440;11.126;2023-02-22T00:35:19;2.32;91.37
71096;DHT22;58753;49.440;11.126;2023-02-22T00:37:51;2.29;91.35
71096;DHT22;58753;49.440;11.126;2023-02-22T00:40:20;2.23;91.35
71096;DHT22;58753;49.440;11.126;2023-02-22T00:42:46;2.21;91.40
71096;DHT22;58753;49.440;11.126;2023-02-22T00:45:13;2.16;91.40
71096;DHT22;58753;49.440;11.126;2023-02-22T00:47:40;2.12;91.24
71096;DHT22;58753;49.440;11.126;2023-02-22T00:50:05;2.09;91.34
71096;DHT22;58753;49.440;11.126;2023-02-22T00:52:31;2.01;91.26
71096;DHT22;58753;49.440;11.126;2023-02-22T00:54:56;1.98;91.52
71096;DHT22;58753;49.440;11.126;2023-02-22T00:57:23;1.97;91.50
71096;DHT22;58753;49.440;11.126;2023-02-22T00:59:49;1.95;91.50
71096;DHT22;58753;49.440;11.126;2023-02-22T01:02:15;1.92;91.55
71096;DHT22;58753;49.440;11.126;2023-02-22T01:04:41;1.95;91.75
71096;DHT22;58753;49.440;11.126;2023-02-22T01:07:07;1.97;91.69
71096;DHT22;58753;49.440;11.126;2023-02-22T01:09:32;1.92;91.65
71096;DHT22;58753;49.440;11.126;2023-02-22T01:11:59;1.92;91.72
71096;DHT22;58753;49.440;11.126;2023-02-22T01:14:26;1.91;91.79
71096;DHT22;58753;49.440;11.126;2023-02-22T01:16:55;1.89;91.77
71096;DHT22;58753;49.440;11.126;2023-02-22T01:19:21;1.89;91.79
71096;DHT22;58753;49.440;11.126;2023-02-22T01:21:48;1.86;91.85
71096;DHT22;58753;49.440;11.126;2023-02-22T01:24:15;1.89;91.83
71096;DHT22;58753;49.440;11.126;2023-02-22T01:26:49;1.88;91.96
71096;DHT22;58753;49.440;11.126;2023-02-22T01:29:16;1.85;91.76
71096;DHT22;58753;49.440;11.126;2023-02-22T01:31:42;1.85;91.74
71096;DHT22;58753;49.440;11.126;2023-02-22T01:34:11;1.82;91.73
71096;DHT22;58753;49.440;11.126;2023-02-22T01:36:37;1.79;91.83
71096;DHT22;58753;49.440;11.126;2023-02-22T01:39:04;1.78;91.86
71096;DHT22;58753;49.440;11.126;2023-02-22T01:41:30;1.75;91.62
71096;DHT22;58753;49.440;11.126;2023-02-22T01:43:55;1.71;91.80
71096;DHT22;58753;49.440;11.126;2023-02-22T01:46:24;1.64;91.60
71096;DHT22;58753;49.440;11.126;2023-02-22T01:48:56;1.60;91.61
71096;DHT22;58753;49.440;11.126;2023-02-22T01:51:27;1.54;91.61
71096;DHT22;58753;49.440;11.126;2023-02-22T01:53:57;1.54;91.84
71096;DHT22;58753;49.440;11.126;2023-02-22T01:56:25;1.51;91.87
71096;DHT22;58753;49.440;11.126;2023-02-22T01:58:56;1.50;91.95
71096;DHT22;58753;49.440;11.126;2023-02-22T02:01:24;1.48;91.87
71096;DHT22;58753;49.440;11.126;2023-02-22T02:03:51;1.48;91.96
71096;DHT22;58753;49.440;11.126;2023-02-22T02:06:22;1.46;91.94
71096;DHT22;58753;49.440;11.126;2023-02-22T02:11:20;1.43;92.12
71096;DHT22;58753;49.440;11.126;2023-02-22T02:13:49;1.37;91.88
71096;DHT22;58753;49.440;11.126;2023-02-22T02:16:15;1.37;91.92
71096;DHT22;58753;49.440;11.126;2023-02-22T02:18:41;1.34;92.03
71096;DHT22;58753;49.440;11.126;2023-02-22T02:37:57;1.20;92.04
71096;DHT22;58753;49.440;11.126;2023-02-22T02:45:54;1.16;92.05
71096;DHT22;58753;49.440;11.126;2023-02-22T02:48:25;1.12;92.04
71096;DHT22;58753;49.440;11.126;2023-02-22T02:50:54;1.13;92.22
71096;DHT22;58753;49.440;11.126;2023-02-22T02:53:26;1.10;92.12
71096;DHT22;58753;49.440;11.126;2023-02-22T02:55:52;1.07;91.96
71096;DHT22;58753;49.440;11.126;2023-02-22T02:58:21;1.04;92.19
71096;DHT22;58753;49.440;11.126;2023-02-22T03:00:49;1.01;92.10
71096;DHT22;58753;49.440;11.126;2023-02-22T03:08:58;0.97;92.08
71096;DHT22;58753;49.440;11.126;2023-02-22T03:11:32;0.93;92.02
71096;DHT22;58753;49.440;11.126;2023-02-22T03:22:09;0.92;92.26
71096;DHT22;58753;49.440;11.126;2023-02-22T03:24:44;0.92;92.23
71096;DHT22;58753;49.440;11.126;2023-02-22T03:27:22;0.93;92.31
71096;DHT22;58753;49.440;11.126;2023-02-22T03:29:50;0.90;92.22
71096;DHT22;58753;49.440;11.126;2023-02-22T03:32:26;0.92;92.21
71096;DHT22;58753;49.440;11.126;2023-02-22T03:34:57;0.85;92.20
71096;DHT22;58753;49.440;11.126;2023-02-22T03:37:28;0.80;92.13
71096;DHT22;58753;49.440;11.126;2023-02-22T03:39:55;0.80;92.31
71096;DHT22;58753;49.440;11.126;2023-02-22T03:42:29;0.79;92.17
71096;DHT22;58753;49.440;11.126;2023-02-22T03:44:59;0.73;92.11
71096;DHT22;58753;49.440;11.126;2023-02-22T03:47:47;0.69;92.10
71096;DHT22;58753;49.440;11.126;2023-02-22T03:50:22;0.63;92.16
71096;DHT22;58753;49.440;11.126;2023-02-22T03:52:51;0.66;92.31
71096;DHT22;58753;49.440;11.126;2023-02-22T03:55:16;0.65;92.28
71096;DHT22;58753;49.440;11.126;2023-02-22T03:57:55;0.59;92.19
71096;DHT22;58753;49.440;11.126;2023-02-22T04:00:24;0.61;92.41
71096;DHT22;58753;49.440;11.126;2023-02-22T04:02:50;0.55;92.22
71096;DHT22;58753;49.440;11.126;2023-02-22T04:05:16;0.55;92.28
71096;DHT22;58753;49.440;11.126;2023-02-22T04:07:42;0.51;92.17
71096;DHT22;58753;49.440;11.126;2023-02-22T04:10:09;0.48;92.38
71096;DHT22;58753;49.440;11.126;2023-02-22T04:12:36;0.48;92.44
71096;DHT22;58753;49.440;11.126;2023-02-22T04:15:02;0.44;92.21
71096;DHT22;58753;49.440;11.126;2023-02-22T04:17:28;0.37;92.21
71096;DHT22;58753;49.440;11.126;2023-02-22T04:19:54;0.35;92.32
71096;DHT22;58753;49.440;11.126;2023-02-22T04:22:19;0.35;92.41
71096;DHT22;58753;49.440;11.126;2023-02-22T04:24:45;0.32;92.40
71096;DHT22;58753;49.440;11.126;2023-02-22T04:27:10;0.34;92.41
71096;DHT22;58753;49.440;11.126;2023-02-22T04:29:36;0.37;92.47
71096;DHT22;58753;49.440;11.126;2023-02-22T04:32:01;0.34;92.50
71096;DHT22;58753;49.440;11.126;2023-02-22T04:34:26;0.35;92.69
71096;DHT22;58753;49.440;11.126;2023-02-22T04:36:52;0.32;92.35
71096;DHT22;58753;49.440;11.126;2023-02-22T04:39:17;0.28;92.35
71096;DHT22;58753;49.440;11.126;2023-02-22T04:41:43;0.25;92.30
71096;DHT22;58753;49.440;11.126;2023-02-22T04:44:08;0.26;92.58
71096;DHT22;58753;49.440;11.126;2023-02-22T04:46:33;0.29;92.63
71096;DHT22;58753;49.440;11.126;2023-02-22T04:48:59;0.26;92.50
71096;DHT22;58753;49.440;11.126;2023-02-22T04:51:24;0.26;92.54
71096;DHT22;58753;49.440;11.126;2023-02-22T04:53:50;0.28;92.47
71096;DHT22;58753;49.440;11.126;2023-02-22T04:56:18;0.21;92.29
71096;DHT22;58753;49.440;11.126;2023-02-22T04:58:44;0.18;92.28
71096;DHT22;58753;49.440;11.126;2023-02-22T05:01:09;0.19;92.54
71096;DHT22;58753;49.440;11.126;2023-02-22T05:03:38;0.18;92.53
71096;DHT22;58753;49.440;11.126;2023-02-22T05:06:03;0.17;92.38
71096;DHT22;58753;49.440;11.126;2023-02-22T05:08:29;0.15;92.39
71096;DHT22;58753;49.440;11.126;2023-02-22T05:10:54;0.17;92.67
71096;DHT22;58753;49.440;11.126;2023-02-22T05:13:20;0.18;92.66
71096;DHT22;58753;49.440;11.126;2023-02-22T05:15:45;0.18;92.64
71096;DHT22;58753;49.440;11.126;2023-02-22T05:18:12;0.17;92.39
71096;DHT22;58753;49.440;11.126;2023-02-22T05:20:38;0.12;92.38
71096;DHT22;58753;49.440;11.126;2023-02-22T05:23:03;0.12;92.53
71096;DHT22;58753;49.440;11.126;2023-02-22T05:25:30;0.14;92.59
71096;DHT22;58753;49.440;11.126;2023-02-22T05:27:59;0.11;92.67
71096;DHT22;58753;49.440;11.126;2023-02-22T05:30:29;0.12;92.67
71096;DHT22;58753;49.440;11.126;2023-02-22T05:32:54;0.14;92.73
71096;DHT22;58753;49.440;11.126;2023-02-22T05:35:21;0.15;92.60
71096;DHT22;58753;49.440;11.126;2023-02-22T05:37:46;0.14;92.72
71096;DHT22;58753;49.440;11.126;2023-02-22T05:40:12;0.17;92.78
71096;DHT22;58753;49.440;11.126;2023-02-22T05:42:39;0.19;92.93
71096;DHT22;58753;49.440;11.126;2023-02-22T05:45:06;0.19;92.67
71096;DHT22;58753;49.440;11.126;2023-02-22T05:47:31;0.17;92.54
71096;DHT22;58753;49.440;11.126;2023-02-22T05:49:57;0.15;92.63
71096;DHT22;58753;49.440;11.126;2023-02-22T05:52:22;0.14;92.66
71096;DHT22;58753;49.440;11.126;2023-02-22T05:54:48;0.15;92.78
71096;DHT22;58753;49.440;11.126;2023-02-22T05:57:13;0.11;92.67
71096;DHT22;58753;49.440;11.126;2023-02-22T05:59:38;0.12;92.62
71096;DHT22;58753;49.440;11.126;2023-02-22T06:02:04;0.12;92.84
71096;DHT22;58753;49.440;11.126;2023-02-22T06:04:29;0.14;92.87
71096;DHT22;58753;49.440;11.126;2023-02-22T06:06:55;0.17;92.84
71096;DHT22;58753;49.440;11.126;2023-02-22T06:09:20;0.15;92.82
71096;DHT22;58753;49.440;11.126;2023-02-22T06:11:45;0.21;92.94
71096;DHT22;58753;49.440;11.126;2023-02-22T06:14:11;0.22;92.92
71096;DHT22;58753;49.440;11.126;2023-02-22T06:16:36;0.28;92.99
71096;DHT22;58753;49.440;11.126;2023-02-22T06:19:02;0.29;92.90
71096;DHT22;58753;49.440;11.126;2023-02-22T06:21:27;0.32;92.92
71096;DHT22;58753;49.440;11.126;2023-02-22T06:23:54;0.32;92.89
71096;DHT22;58753;49.440;11.126;2023-02-22T06:26:19;0.35;92.93
71096;DHT22;58753;49.440;11.126;2023-02-22T06:28:45;0.35;92.77
71096;DHT22;58753;49.440;11.126;2023-02-22T06:31:11;0.31;92.88
71096;DHT22;58753;49.440;11.126;2023-02-22T06:33:36;0.31;92.79
71096;DHT22;58753;49.440;11.126;2023-02-22T06:36:02;0.29;92.78
71096;DHT22;58753;49.440;11.126;2023-02-22T06:38:27;0.35;92.82
71096;DHT22;58753;49.440;11.126;2023-02-22T06:40:53;0.35;92.85
71096;DHT22;58753;49.440;11.126;2023-02-22T06:43:22;0.40;92.87
71096;DHT22;58753;49.440;11.126;2023-02-22T06:45:49;0.42;92.87
71096;DHT22;58753;49.440;11.126;2023-02-22T06:48:16;0.42;92.92
71096;DHT22;58753;49.440;11.126;2023-02-22T06:50:42;0.52;92.92
71096;DHT22;58753;49.440;11.126;2023-02-22T06:53:07;0.55;92.95
71096;DHT22;58753;49.440;11.126;2023-02-22T06:55:34;0.58;92.94
71096;DHT22;58753;49.440;11.126;2023-02-22T06:58:00;0.65;92.92
71096;DHT22;58753;49.440;11.126;2023-02-22T07:00:27;0.65;92.83
71096;DHT22;58753;49.440;11.126;2023-02-22T07:02:53;0.72;92.87
71096;DHT22;58753;49.440;11.126;2023-02-22T07:05:21;0.79;92.86
71096;DHT22;58753;49.440;11.126;2023-02-22T07:07:49;0.85;92.97
71096;DHT22;58753;49.440;11.126;2023-02-22T07:10:19;0.90;92.86
71096;DHT22;58753;49.440;11.126;2023-02-22T07:12:45;0.95;92.81
71096;DHT22;58753;49.440;11.126;2023-02-22T07:15:10;1.00;92.70
71096;DHT22;58753;49.440;11.126;2023-02-22T07:17:37;1.03;92.76
71096;DHT22;58753;49.440;11.126;2023-02-22T07:20:06;1.10;92.75
71096;DHT22;58753;49.440;11.126;2023-02-22T07:22:31;1.17;92.69
71096;DHT22;58753;49.440;11.126;2023-02-22T07:24:57;1.24;92.55
71096;DHT22;58753;49.440;11.126;2023-02-22T07:27:22;1.27;92.63
71096;DHT22;58753;49.440;11.126;2023-02-22T07:29:47;1.33;92.64
71096;DHT22;58753;49.440;11.126;2023-02-22T07:32:14;1.37;92.63
71096;DHT22;58753;49.440;11.126;2023-02-22T07:34:40;1.44;92.56
71096;DHT22;58753;49.440;11.126;2023-02-22T07:37:06;1.48;92.39
71096;DHT22;58753;49.440;11.126;2023-02-22T07:39:31;1.54;92.51
71096;DHT22;58753;49.440;11.126;2023-02-22T07:41:59;1.57;92.39
71096;DHT22;58753;49.440;11.126;2023-02-22T07:44:24;1.65;92.45
71096;DHT22;58753;49.440;11.126;2023-02-22T07:46:50;1.75;92.64
71096;DHT22;58753;49.440;11.126;2023-02-22T07:49:16;1.86;92.49
71096;DHT22;58753;49.440;11.126;2023-02-22T07:51:41;1.94;92.45
71096;DHT22;58753;49.440;11.126;2023-02-22T07:54:07;2.03;92.44
71096;DHT22;58753;49.440;11.126;2023-02-22T07:56:32;2.15;92.55
71096;DHT22;58753;49.440;11.126;2023-02-22T07:58:58;2.26;92.50
71096;DHT22;58753;49.440;11.126;2023-02-22T08:01:24;2.37;92.58
71096;DHT22;58753;49.440;11.126;2023-02-22T08:03:50;2.46;92.60
71096;DHT22;58753;49.440;11.126;2023-02-22T08:06:16;2.58;92.53
71096;DHT22;58753;49.440;11.126;2023-02-22T08:08:42;2.70;92.52
71096;DHT22;58753;49.440;11.126;2023-02-22T08:11:08;2.85;92.55
71096;DHT22;58753;49.440;11.126;2023-02-22T08:13:34;2.97;92.56
71096;DHT22;58753;49.440;11.126;2023-02-22T08:16:01;3.09;92.55
71096;DHT22;58753;49.440;11.126;2023-02-22T08:18:27;3.22;92.49
71096;DHT22;58753;49.440;11.126;2023-02-22T08:20:53;3.34;92.46
71096;DHT22;58753;49.440;11.126;2023-02-22T08:23:21;3.48;92.43
71096;DHT22;58753;49.440;11.126;2023-02-22T08:25:47;3.58;92.39
71096;DHT22;58753;49.440;11.126;2023-02-22T08:28:16;3.69;92.43
71096;DHT22;58753;49.440;11.126;2023-02-22T08:30:42;3.80;92.37
71096;DHT22;58753;49.440;11.126;2023-02-22T08:33:09;3.93;92.37
71096;DHT22;58753;49.440;11.126;2023-02-22T08:35:37;4.06;92.30
71096;DHT22;58753;49.440;11.126;2023-02-22T08:38:06;4.18;92.29
71096;DHT22;58753;49.440;11.126;2023-02-22T08:40:33;4.29;92.25
71096;DHT22;58753;49.440;11.126;2023-02-22T08:43:00;4.40;92.22
71096;DHT22;58753;49.440;11.126;2023-02-22T08:45:28;4.51;92.18
71096;DHT22;58753;49.440;11.126;2023-02-22T08:47:54;4.64;92.13
71096;DHT22;58753;49.440;11.126;2023-02-22T08:50:28;4.75;92.13
71096;DHT22;58753;49.440;11.126;2023-02-22T08:52:56;4.86;92.06
71096;DHT22;58753;49.440;11.126;2023-02-22T08:55:25;4.98;92.11
71096;DHT22;58753;49.440;11.126;2023-02-22T08:57:51;5.12;92.22
71096;DHT22;58753;49.440;11.126;2023-02-22T09:00:18;5.29;92.11
71096;DHT22;58753;49.440;11.126;2023-02-22T09:02:44;5.46;92.19
71096;DHT22;58753;49.440;11.126;2023-02-22T09:05:10;5.59;91.97
71096;DHT22;58753;49.440;11.126;2023-02-22T09:07:35;5.75;92.12
71096;DHT22;58753;49.440;11.126;2023-02-22T09:10:00;5.87;91.92
71096;DHT22;58753;49.440;11.126;2023-02-22T09:12:26;5.98;91.95
71096;DHT22;58753;49.440;11.126;2023-02-22T09:14:51;6.10;92.00
71096;DHT22;58753;49.440;11.126;2023-02-22T09:17:17;6.21;91.99
71096;DHT22;58753;49.440;11.126;2023-02-22T09:19:42;6.32;91.92
71096;DHT22;58753;49.440;11.126;2023-02-22T09:22:09;6.44;91.97
71096;DHT22;58753;49.440;11.126;2023-02-22T09:24:35;6.57;92.00
71096;DHT22;58753;49.440;11.126;2023-02-22T09:27:00;6.72;91.93
71096;DHT22;58753;49.440;11.126;2023-02-22T09:29:29;6.86;91.86
71096;DHT22;58753;49.440;11.126;2023-02-22T09:31:55;7.00;91.77
71096;DHT22;58753;49.440;11.126;2023-02-22T09:34:22;7.16;91.71
71096;DHT22;58753;49.440;11.126;2023-02-22T09:36:54;7.38;91.61
71096;DHT22;58753;49.440;11.126;2023-02-22T09:39:20;7.50;91.38
71096;DHT22;58753;49.440;11.126;2023-02-22T09:44:49;7.78;91.13
71096;DHT22;58753;49.440;11.126;2023-02-22T09:47:24;7.92;90.94
71096;DHT22;58753;49.440;11.126;2023-02-22T09:50:01;8.05;90.79
71096;DHT22;58753;49.440;11.126;2023-02-22T09:52:31;8.19;90.60
71096;DHT22;58753;49.440;11.126;2023-02-22T09:57:42;8.43;90.04
71096;DHT22;58753;49.440;11.126;2023-02-22T10:02:45;8.66;89.67
71096;DHT22;58753;49.440;11.126;2023-02-22T10:05:23;8.77;89.46
71096;DHT22;58753;49.440;11.126;2023-02-22T10:08:00;8.88;89.27
71096;DHT22;58753;49.440;11.126;2023-02-22T10:10:34;9.00;89.09
71096;DHT22;58753;49.440;11.126;2023-02-22T10:13:04;9.10;88.90
71096;DHT22;58753;49.440;11.126;2023-02-22T10:15:53;9.29;88.76
71096;DHT22;58753;49.440;11.126;2023-02-22T10:18:48;9.52;88.47
71096;DHT22;58753;49.440;11.126;2023-02-22T10:27:32;10.21;86.57
71096;DHT22;58753;49.440;11.126;2023-02-22T10:30:15;10.36;86.37
71096;DHT22;58753;49.440;11.126;2023-02-22T10:32:44;10.45;85.72
71096;DHT22;58753;49.440;11.126;2023-02-22T10:35:23;10.51;85.43
71096;DHT22;58753;49.440;11.126;2023-02-22T10:37:53;10.61;84.72
71096;DHT22;58753;49.440;11.126;2023-02-22T10:40:22;10.74;84.48
71096;DHT22;58753;49.440;11.126;2023-02-22T10:42:59;10.88;84.22
71096;DHT22;58753;49.440;11.126;2023-02-22T10:45:28;10.99;83.50
71096;DHT22;58753;49.440;11.126;2023-02-22T10:47:59;11.19;83.11
71096;DHT22;58753;49.440;11.126;2023-02-22T10:50:30;11.33;82.74
71096;DHT22;58753;49.440;11.126;2023-02-22T10:52:56;11.52;82.02
71096;DHT22;58753;49.440;11.126;2023-02-22T10:55:21;11.71;81.79
71096;DHT22;58753;49.440;11.126;2023-02-22T10:57:50;11.86;81.35
71096;DHT22;58753;49.440;11.126;2023-02-22T11:00:19;11.97;80.85
71096;DHT22;58753;49.440;11.126;2023-02-22T11:02:53;12.13;79.91
71096;DHT22;58753;49.440;11.126;2023-02-22T11:05:37;12.30;79.73
71096;DHT22;58753;49.440;11.126;2023-02-22T11:10:58;12.56;78.86
71096;DHT22;58753;49.440;11.126;2023-02-22T11:13:27;12.71;78.54
71096;DHT22;58753;49.440;11.126;2023-02-22T11:15:54;12.79;76.93
71096;DHT22;58753;49.440;11.126;2023-02-22T11:18:33;12.95;76.93
71096;DHT22;58753;49.440;11.126;2023-02-22T11:21:07;13.07;75.70
71096;DHT22;58753;49.440;11.126;2023-02-22T11:23:36;13.36;75.20
71096;DHT22;58753;49.440;11.126;2023-02-22T11:26:11;13.84;74.41
71096;DHT22;58753;49.440;11.126;2023-02-22T11:28:47;14.77;71.56
71096;DHT22;58753;49.440;11.126;2023-02-22T11:31:22;16.10;71.17
71096;DHT22;58753;49.440;11.126;2023-02-22T11:33:52;17.21;69.53
71096;DHT22;58753;49.440;11.126;2023-02-22T11:36:38;17.78;67.29
71096;DHT22;58753;49.440;11.126;2023-02-22T11:39:28;18.02;66.46
71096;DHT22;58753;49.440;11.126;2023-02-22T11:41:57;17.71;63.55
71096;DHT22;58753;49.440;11.126;2023-02-22T11:44:25;17.58;62.23
71096;DHT22;58753;49.440;11.126;2023-02-22T11:46:52;17.35;60.40
71096;DHT22;58753;49.440;11.126;2023-02-22T11:49:32;17.61;60.22
71096;DHT22;58753;49.440;11.126;2023-02-22T11:57:49;19.31;54.43
71096;DHT22;58753;49.440;11.126;2023-02-22T12:00:29;19.12;54.04
71096;DHT22;58753;49.440;11.126;2023-02-22T12:11:04;21.59;51.87
71096;DHT22;58753;49.440;11.126;2023-02-22T12:13:53;22.08;49.00
71096;DHT22;58753;49.440;11.126;2023-02-22T12:19:33;22.21;46.03
71096;DHT22;58753;49.440;11.126;2023-02-22T12:22:07;22.28;44.62
71096;DHT22;58753;49.440;11.126;2023-02-22T12:24:58;22.28;44.65
71096;DHT22;58753;49.440;11.126;2023-02-22T12:27:36;22.05;43.23
71096;DHT22;58753;49.440;11.126;2023-02-22T12:30:14;21.91;43.62
71096;DHT22;58753;49.440;11.126;2023-02-22T12:32:49;21.90;43.87
71096;DHT22;58753;49.440;11.126;2023-02-22T12:35:20;22.17;43.52
71096;DHT22;58753;49.440;11.126;2023-02-22T12:38:09;22.43;41.71
71096;DHT22;58753;49.440;11.126;2023-02-22T12:40:44;22.56;40.63
71096;DHT22;58753;49.440;11.126;2023-02-22T12:43:24;22.49;42.07
71096;DHT22;58753;49.440;11.126;2023-02-22T12:49:02;21.53;42.03
71096;DHT22;58753;49.440;11.126;2023-02-22T12:51:50;21.53;42.73
71096;DHT22;58753;49.440;11.126;2023-02-22T12:57:33;21.93;41.67
71096;DHT22;58753;49.440;11.126;2023-02-22T13:00:10;21.97;40.40
71096;DHT22;58753;49.440;11.126;2023-02-22T13:02:46;21.60;40.99
71096;DHT22;58753;49.440;11.126;2023-02-22T13:05:15;21.46;41.46
71096;DHT22;58753;49.440;11.126;2023-02-22T13:19:32;20.47;43.16
71096;DHT22;58753;49.440;11.126;2023-02-22T13:24:15;19.66;43.76
71096;DHT22;58753;49.440;11.126;2023-02-22T13:26:49;19.43;45.00
71096;DHT22;58753;49.440;11.126;2023-02-22T13:29:21;19.11;44.99
71096;DHT22;58753;49.440;11.126;2023-02-22T13:32:10;18.75;45.71
71096;DHT22;58753;49.440;11.126;2023-02-22T13:37:40;18.05;46.85
71096;DHT22;58753;49.440;11.126;2023-02-22T13:40:41;17.86;47.74
71096;DHT22;58753;49.440;11.126;2023-02-22T13:57:17;17.21;48.53
71096;DHT22;58753;49.440;11.126;2023-02-22T13:59:43;17.18;48.87
71096;DHT22;58753;49.440;11.126;2023-02-22T14:02:32;17.21;49.54
71096;DHT22;58753;49.440;11.126;2023-02-22T14:10:52;17.78;49.34
71096;DHT22;58753;49.440;11.126;2023-02-22T14:13:26;17.69;49.16
71096;DHT22;58753;49.440;11.126;2023-02-22T14:18:45;18.07;48.99
71096;DHT22;58753;49.440;11.126;2023-02-22T14:21:19;18.64;48.78
71096;DHT22;58753;49.440;11.126;2023-02-22T14:23:49;18.50;47.10
71096;DHT22;58753;49.440;11.126;2023-02-22T14:26:28;18.16;47.00
71096;DHT22;58753;49.440;11.126;2023-02-22T14:29:16;17.79;47.14
71096;DHT22;58753;49.440;11.126;2023-02-22T14:34:13;17.07;48.49
71096;DHT22;58753;49.440;11.126;2023-02-22T14:36:43;16.87;49.07
71096;DHT22;58753;49.440;11.126;2023-02-22T14:42:23;16.34;50.26
71096;DHT22;58753;49.440;11.126;2023-02-22T14:50:41;15.87;51.78
71096;DHT22;58753;49.440;11.126;2023-02-22T14:58:54;15.54;53.18
71096;DHT22;58753;49.440;11.126;2023-02-22T15:01:31;15.47;53.66
71096;DHT22;58753;49.440;11.126;2023-02-22T15:04:24;15.37;54.06
71096;DHT22;58753;49.440;11.126;2023-02-22T15:06:51;15.24;54.45
71096;DHT22;58753;49.440;11.126;2023-02-22T15:09:23;15.22;54.74
71096;DHT22;58753;49.440;11.126;2023-02-22T15:11:54;15.17;55.17
71096;DHT22;58753;49.440;11.126;2023-02-22T15:14:24;15.10;55.47
71096;DHT22;58753;49.440;11.126;2023-02-22T15:16:55;15.07;55.75
71096;DHT22;58753;49.440;11.126;2023-02-22T15:19:25;15.07;55.99
71096;DHT22;58753;49.440;11.126;2023-02-22T15:21:53;15.00;56.24
71096;DHT22;58753;49.440;11.126;2023-02-22T15:24:31;14.93;56.55
71096;DHT22;58753;49.440;11.126;2023-02-22T15:27:05;14.87;57.00
71096;DHT22;58753;49.440;11.126;2023-02-22T15:29:35;14.82;57.33
71096;DHT22;58753;49.440;11.126;2023-02-22T15:32:01;14.80;57.64
71096;DHT22;58753;49.440;11.126;2023-02-22T15:34:28;14.70;57.84
71096;DHT22;58753;49.440;11.126;2023-02-22T15:36:55;14.66;58.21
71096;DHT22;58753;49.440;11.126;2023-02-22T15:39:30;14.59;58.56
71096;DHT22;58753;49.440;11.126;2023-02-22T15:42:05;14.52;58.78
71096;DHT22;58753;49.440;11.126;2023-02-22T15:44:40;14.45;59.08
71096;DHT22;58753;49.440;11.126;2023-02-22T15:47:11;14.39;59.29
71096;DHT22;58753;49.440;11.126;2023-02-22T15:49:39;14.35;59.57
71096;DHT22;58753;49.440;11.126;2023-02-22T15:52:18;14.29;59.92
71096;DHT22;58753;49.440;11.126;2023-02-22T15:54:48;14.25;60.27
71096;DHT22;58753;49.440;11.126;2023-02-22T15:57:19;14.15;60.48
71096;DHT22;58753;49.440;11.126;2023-02-22T15:59:51;14.09;60.50
71096;DHT22;58753;49.440;11.126;2023-02-22T16:02:40;14.00;60.81
71096;DHT22;58753;49.440;11.126;2023-02-22T16:05:12;13.91;61.22
71096;DHT22;58753;49.440;11.126;2023-02-22T16:07:47;13.81;61.47
71096;DHT22;58753;49.440;11.126;2023-02-22T16:10:21;13.73;61.81
71096;DHT22;58753;49.440;11.126;2023-02-22T16:12:47;13.63;62.08
71096;DHT22;58753;49.440;11.126;2023-02-22T16:15:17;13.51;62.23
71096;DHT22;58753;49.440;11.126;2023-02-22T16:17:43;13.43;62.59
71096;DHT22;58753;49.440;11.126;2023-02-22T16:22:42;13.19;63.29
71096;DHT22;58753;49.440;11.126;2023-02-22T16:27:59;12.96;64.04
71096;DHT22;58753;49.440;11.126;2023-02-22T16:30:38;12.89;64.37
71096;DHT22;58753;49.440;11.126;2023-02-22T16:33:06;12.76;64.68
71096;DHT22;58753;49.440;11.126;2023-02-22T16:35:40;12.69;65.02
71096;DHT22;58753;49.440;11.126;2023-02-22T16:38:16;12.59;65.29
71096;DHT22;58753;49.440;11.126;2023-02-22T16:40:52;12.52;65.56
71096;DHT22;58753;49.440;11.126;2023-02-22T16:43:21;12.45;65.96
71096;DHT22;58753;49.440;11.126;2023-02-22T16:45:47;12.40;66.35
71096;DHT22;58753;49.440;11.126;2023-02-22T16:48:24;12.32;66.69
71096;DHT22;58753;49.440;11.126;2023-02-22T16:50:52;12.28;66.90
71096;DHT22;58753;49.440;11.126;2023-02-22T16:53:20;12.20;67.12
71096;DHT22;58753;49.440;11.126;2023-02-22T16:55:47;12.11;67.38
71096;DHT22;58753;49.440;11.126;2023-02-22T16:58:16;12.07;67.62
71096;DHT22;58753;49.440;11.126;2023-02-22T17:00:42;12.01;67.90
71096;DHT22;58753;49.440;11.126;2023-02-22T17:03:14;11.95;68.05
71096;DHT22;58753;49.440;11.126;2023-02-22T17:05:40;11.90;68.28
71096;DHT22;58753;49.440;11.126;2023-02-22T17:08:06;11.84;68.53
71096;DHT22;58753;49.440;11.126;2023-02-22T17:10:32;11.77;69.02
71096;DHT22;58753;49.440;11.126;2023-02-22T17:12:58;11.71;69.12
71096;DHT22;58753;49.440;11.126;2023-02-22T17:15:31;11.69;69.34
71096;DHT22;58753;49.440;11.126;2023-02-22T17:17:59;11.63;69.63
71096;DHT22;58753;49.440;11.126;2023-02-22T17:20:25;11.56;69.90
71096;DHT22;58753;49.440;11.126;2023-02-22T17:23:05;11.49;70.10
71096;DHT22;58753;49.440;11.126;2023-02-22T17:25:36;11.46;70.31
71096;DHT22;58753;49.440;11.126;2023-02-22T17:28:02;11.40;70.56
71096;DHT22;58753;49.440;11.126;2023-02-22T17:30:27;11.38;70.92
71096;DHT22;58753;49.440;11.126;2023-02-22T17:32:58;11.30;71.03
71096;DHT22;58753;49.440;11.126;2023-02-22T17:35:29;11.29;71.31
71096;DHT22;58753;49.440;11.126;2023-02-22T17:37:55;11.25;71.51
71096;DHT22;58753;49.440;11.126;2023-02-22T17:40:22;11.19;71.69
71096;DHT22;58753;49.440;11.126;2023-02-22T17:42:47;11.15;71.82
71096;DHT22;58753;49.440;11.126;2023-02-22T17:45:22;11.12;72.11
71096;DHT22;58753;49.440;11.126;2023-02-22T17:47:50;11.05;72.40
71096;DHT22;58753;49.440;11.126;2023-02-22T17:50:17;11.04;72.57
71096;DHT22;58753;49.440;11.126;2023-02-22T17:52:42;10.98;72.86
71096;DHT22;58753;49.440;11.126;2023-02-22T17:55:10;10.95;73.01
71096;DHT22;58753;49.440;11.126;2023-02-22T17:57:36;10.92;73.21
71096;DHT22;58753;49.440;11.126;2023-02-22T18:00:05;10.84;73.42